Impacts TAF Board INFO
FOR SITUATIONAL AWARENESS. NOT TO BE USED FOR FLIGHT PLANNING PURPOSES.
IDs:

KBOS - Boston/Logan Intl, MA, US

Issued at 2337 UTC 22 Feb 2018
Updated at 0030 UTC 23 Feb 2018
Potential Impact None Slight Moderate High
Time2354Z 23/01Z 23/02Z 23/03Z 23/04Z 23/05Z 23/06Z 23/07Z 23/08Z 23/09Z 23/10Z 23/11Z 23/12Z 23/13Z>>
Type OBS PRVL PRVL PRVL PRVL PRVL PRVL PRVL PRVL PRVL PRVL PRVL PRVL PRVL
VIS 2 >6 >6 >6 >6 >6 >6 >6 >6 >6 >6 >6 >6 >6
CIG 15 10 10 10 15 15 15 15 15 60 60 60 30 30
Cover OVC OVC OVC OVC BKN BKN BKN BKN BKN BKN BKN BKN BKN BKN
FltCat IFR MVFR MVFR MVFR MVFR MVFR MVFR MVFR MVFR VFR VFR VFR MVFR MVFR
WX -SN BR -- -- -- -- -- -- -- -- -- -- -- -- --
WDir 130 VRB VRB VRB 60 60 60 60 60 20 20 20 80 80
WSpd 3 4 4 4 4 4 4 4 4 5 5 5 7 7
WGst -- -- -- -- -- -- -- -- -- -- -- -- -- --

Raw TAF
KBOS 222337Z 2300/2406 VRB04KT P6SM OVC010
  FM230400 06004KT P6SM BKN015
  FM230900 02005KT P6SM SCT010 BKN060
  FM231200 08007KT P6SM SCT010 BKN030
  FM232000 14007KT P6SM -RAPL OVC050
  FM232300 17007KT P6SM -RA OVC020
  FM240100 19007KT P6SM OVC015


Raw METAR
KBOS 222354Z 13003KT 2SM -SN BR SCT008 BKN015 OVC042 00/M01 A3067 RMK AO2 SFC VIS 3 SLP385 P0000 60007 T00001006 10039 20000 50007 $
KBOS 222334Z 00000KT 2SM -SN BR SCT008 BKN019 OVC044 00/M01 A3068 RMK AO2 SFC VIS 3 P0000 T00001006 $
KBOS 222254Z 00000KT 2SM -SN BR SCT006 BKN011 OVC026 01/M01 A3069 RMK AO2 SFC VIS 2 1/2 SLP392 P0002 T00061006 $
KBOS 222240Z 00000KT 2SM -SN BR SCT006 BKN011 OVC026 00/00 A3069 RMK AO2 P0001 T00000000 $
KBOS 222232Z 00000KT 1 3/4SM R04R/5000VP6000FT -SN BR SCT006 BKN011 OVC021 00/M01 A3069 RMK AO2 TWR VIS 2 P0001 T00001006 $
KBOS 222208Z 1SM R04R/4000VP6000FT -SN BR FEW006 OVC021 00/M01 A3068 RMK AO2 TWR VIS 2 P0000 T00001006 $
KBOS 222154Z 01005KT 3/4SM R04R/4500VP6000FT -SN BR FEW005 OVC021 00/M01 A3068 RMK AO2 TWR VIS 3 SLP389 P0004 T00001011 $
KBOS 222149Z 01005KT 3/4SM R04R/4500VP6000FT -SN BR FEW005 OVC021 00/M01 A3068 RMK AO2 TWR VIS 3 P0003 $
KBOS 222137Z 36004KT 1SM R04R/4000VP6000FT -SN BR SCT007 OVC021 00/M01 A3068 RMK AO2 TWR VIS 3 P0003 T00001011 $

METAR Board
Radar Display
Forecast Discussion

FOR SITUATIONAL AWARENESS. NOT TO BE USED FOR FLIGHT PLANNING PURPOSES.